Airfield :
LOGIN :

Register | Disclaimer

   EN    FR    IT 

 










Legend :    VFR   Marginal VFR   IFR   Intensive IFR   Very Intensive IFR
Visi :
Ceiling :
>= 8 km
>= 3000ft
5 to 8 km
1000 to 3000 ft
1500m to 5 km
500 to 1000 ft
800 to 1500m
200 to 500 ft
< 800m
< 200 ft
Symbols :   Thunderstorms  Fog  Heavy snow  Heavy precipitations  Wind > 20 kt
SIGMETs :     Misc.  Thunderstorms  Icing  Turbulence  Mountain Waves  Volcanic Ashes






- Airport Elevation : 187 ft


LPMR - Monte Real Air Base

CURRENT METAR :
  • 230000Z 16004KT CAVOK 14/12 Q1013

EXPIRED METARs :
  • 222300Z 14003KT CAVOK 14/12 Q1013

TAF TAF LPMR
Valid from the 23 at 00:00 until the 24 at 00:00 UTC


222310Z 2300/2324 14005KT CAVOK
BECMG 2306/2308 16012KT BKN040
TEMPO 2308/2318 16015G28KT 7000 -RA BKN030
PROB40
TEMPO 2314/2318 4000 RA SCT012 BKN018 SCT020CB
BECMG 2318/2320 SCT020



MET'MAP, your aeronautical weather chart ! - Copyright ORBIFLY December 2007 - Disclaimer

ORBIFLY MET'MAP TEAM :

Programming & Development : Alexandra Zaïnal
Concept & original design : Baudouin d'Aumeries
Assistance for programming : Marc-Olivier Méhu
Technical & hardware support : Manuel Goepfert

Contact : metmap@orbifly.com




SOURCES & CREDITS :

   NOAA